createdAt,value
2017-06-12T00:00:37.880Z,82.51
2017-06-12T00:01:53.386Z,81.93
2017-06-12T00:03:08.924Z,81.84
2017-06-12T00:04:24.378Z,82.03
2017-06-12T00:05:39.807Z,82.13
2017-06-12T00:06:55.232Z,81.45
2017-06-12T00:08:10.702Z,81.65
2017-06-12T00:09:26.140Z,81.51
2017-06-12T00:10:41.625Z,81.51
2017-06-12T00:11:57.084Z,81.12
2017-06-12T00:13:11.109Z,81.22
2017-06-12T00:14:26.539Z,81.32
2017-06-12T00:15:41.945Z,81.22
2017-06-12T00:16:57.428Z,81.22
2017-06-12T00:18:12.823Z,81.16
2017-06-12T00:19:28.253Z,81.41
2017-06-12T00:20:43.769Z,81.9
2017-06-12T00:21:59.247Z,82.03
2017-06-12T00:23:13.051Z,81.51
2017-06-12T00:24:28.529Z,81.55
2017-06-12T00:25:44.310Z,81.22
2017-06-12T00:26:59.717Z,80.87
2017-06-12T00:28:15.282Z,80.93
2017-06-12T00:29:30.932Z,81.16
2017-06-12T00:30:45.190Z,81.02
2017-06-12T00:32:00.844Z,80.93
2017-06-12T00:33:16.238Z,81.02
2017-06-12T00:34:31.686Z,81.41
2017-06-12T00:35:47.156Z,81.51
2017-06-12T00:37:02.637Z,81.12
2017-06-12T00:38:18.222Z,81.51
2017-06-12T00:39:33.639Z,81.12
2017-06-12T00:40:49.182Z,81.7
2017-06-12T00:42:04.643Z,81.02
2017-06-12T00:43:20.133Z,81.12
2017-06-12T00:44:35.557Z,80.54
2017-06-12T00:45:51.160Z,80.74
2017-06-12T00:47:06.624Z,81.12
2017-06-12T00:48:22.107Z,81.22
2017-06-12T00:49:37.660Z,80.93
2017-06-12T00:50:53.113Z,81.02
2017-06-12T00:52:08.584Z,80.93
2017-06-12T00:53:24.331Z,81.12
2017-06-12T00:54:39.785Z,81.02
2017-06-12T00:55:53.913Z,81.32
2017-06-12T00:57:07.938Z,81.12
2017-06-12T00:58:23.544Z,81.22
2017-06-12T00:59:39.068Z,80.45
2017-06-12T01:00:54.559Z,80.64
2017-06-12T01:02:08.646Z,80.54
2017-06-12T01:03:24.147Z,80.26
2017-06-12T01:04:39.590Z,80.51
2017-06-12T01:05:55.064Z,79.97
2017-06-12T01:07:10.522Z,80.26
2017-06-12T01:08:26.020Z,80.16
2017-06-12T01:09:41.481Z,79.68
2017-06-12T01:10:56.952Z,79.87
2017-06-12T01:12:12.407Z,79.49
2017-06-12T01:13:27.847Z,79.19
2017-06-12T01:14:41.883Z,78.86
2017-06-12T01:15:57.466Z,79.19
2017-06-12T01:17:12.998Z,78.77
2017-06-12T01:18:28.491Z,79.19
2017-06-12T01:19:44.101Z,78.77
2017-06-12T01:20:59.579Z,78.96
2017-06-12T01:22:15.019Z,78.52
2017-06-12T01:23:30.498Z,78.42
2017-06-12T01:24:44.701Z,78
2017-06-12T01:26:00.132Z,78.23
2017-06-12T01:27:15.608Z,78.67
2017-06-12T01:28:31.047Z,78.67
2017-06-12T01:29:46.479Z,78.23
2017-06-12T01:31:01.933Z,78.23
2017-06-12T01:32:17.389Z,78.09
2017-06-12T01:33:32.865Z,78.38
2017-06-12T01:34:48.335Z,78.38
2017-06-12T01:36:03.786Z,78.09
2017-06-12T01:37:50.062Z,77.71
2017-06-12T01:39:05.612Z,78.33
2017-06-12T01:40:21.076Z,78.09
2017-06-12T01:41:36.510Z,78.03
2017-06-12T01:42:52.011Z,77.94
2017-06-12T01:44:07.478Z,77.61
2017-06-12T01:45:22.916Z,77.55
2017-06-12T01:46:38.407Z,77.84
2017-06-12T01:47:53.849Z,76.78
2017-06-12T01:49:09.434Z,77.13
2017-06-12T01:50:25.114Z,77.03
2017-06-12T01:51:40.593Z,76.93
2017-06-12T01:52:56.103Z,76.93
2017-06-12T01:54:11.761Z,76.84
2017-06-12T01:55:26.902Z,76.84
2017-06-12T01:56:41.067Z,76.75
2017-06-12T01:57:56.496Z,77.17
2017-06-12T01:59:12.060Z,76.59
2017-06-12T02:00:27.501Z,76.3
2017-06-12T02:01:42.982Z,76.07
2017-06-12T02:02:58.533Z,76.3
2017-06-12T02:04:13.609Z,75.92
2017-06-12T02:05:29.094Z,75.82
2017-06-12T02:06:44.584Z,76.07
2017-06-12T02:07:59.662Z,75.92
2017-06-12T02:09:15.093Z,76.1
2017-06-12T02:10:30.591Z,75.92
2017-06-12T02:11:45.705Z,75.88
2017-06-12T02:13:01.176Z,75.97
2017-06-12T02:14:15.389Z,75.68
2017-06-12T02:15:30.884Z,75.4
2017-06-12T02:16:46.763Z,75.59
2017-06-12T02:18:02.191Z,75.4
2017-06-12T02:19:17.673Z,75.3
2017-06-12T02:20:33.256Z,75.3
2017-06-12T02:21:48.706Z,75.1
2017-06-12T02:23:17.626Z,75.01
2017-06-12T02:24:33.173Z,75.2
2017-06-12T02:25:48.980Z,75.14
2017-06-12T02:27:04.444Z,74.27
2017-06-12T02:28:19.890Z,74.66
2017-06-12T02:29:35.364Z,74.47
2017-06-12T02:30:50.821Z,74.37
2017-06-12T02:32:06.383Z,74.08
2017-06-12T02:33:20.534Z,73.99
2017-06-12T02:34:35.954Z,74.18
2017-06-12T02:35:51.433Z,73.75
2017-06-12T02:37:06.913Z,73.89
2017-06-12T02:38:22.323Z,73.99
2017-06-12T02:39:36.308Z,73.89
2017-06-12T02:40:51.790Z,74.08
2017-06-12T02:42:05.978Z,73.85
2017-06-12T02:43:21.542Z,73.75
2017-06-12T02:44:36.942Z,73.85
2017-06-12T02:45:51.267Z,73.99
2017-06-12T02:47:06.834Z,73.95
2017-06-12T02:48:22.315Z,73.75
2017-06-12T02:49:36.472Z,73.85
2017-06-12T02:50:51.935Z,74.43
2017-06-12T02:52:07.379Z,74.33
2017-06-12T02:53:23.040Z,74.62
2017-06-12T02:54:38.475Z,74.62
2017-06-12T02:55:53.939Z,74.72
2017-06-12T02:57:09.388Z,74.72
2017-06-12T02:58:24.878Z,75.1
2017-06-12T02:59:40.534Z,74.82
2017-06-12T03:00:56.003Z,74.49
2017-06-12T03:02:11.462Z,74.62
2017-06-12T03:03:25.653Z,74.49
2017-06-12T03:04:41.165Z,73.91
2017-06-12T03:05:56.786Z,73.72
2017-06-12T03:07:12.206Z,73.43
2017-06-12T03:08:27.696Z,73.53
2017-06-12T03:09:43.192Z,73.53
2017-06-12T03:10:57.353Z,73.33
2017-06-12T03:12:13.020Z,73.05
2017-06-12T03:13:28.516Z,73.05
2017-06-12T03:14:43.934Z,73.24
2017-06-12T03:15:59.484Z,72.95
2017-06-12T03:17:15.100Z,73.53
2017-06-12T03:18:29.398Z,73.53
2017-06-12T03:19:44.999Z,73.53
2017-06-12T03:21:00.465Z,73.53
2017-06-12T03:22:15.935Z,72.95
2017-06-12T03:23:31.476Z,73.43
2017-06-12T03:24:45.488Z,73.62
2017-06-12T03:26:00.937Z,73.14
2017-06-12T03:27:16.645Z,73.24
2017-06-12T03:28:32.090Z,73.14
2017-06-12T03:29:47.549Z,73.24
2017-06-12T03:31:03.036Z,73.14
2017-06-12T03:32:18.055Z,73.14
2017-06-12T03:33:33.701Z,72.95
2017-06-12T03:34:49.155Z,72.95
2017-06-12T03:36:04.557Z,73.33
2017-06-12T03:37:20.047Z,72.95
2017-06-12T03:38:35.481Z,73.24
2017-06-12T03:39:50.920Z,73.24
2017-06-12T03:41:05.283Z,72.18
2017-06-12T03:42:19.288Z,72.18
2017-06-12T03:43:34.854Z,72.47
2017-06-12T03:44:50.267Z,72.47
2017-06-12T03:46:05.742Z,72.37
2017-06-12T03:47:21.224Z,72.37
2017-06-12T03:48:36.689Z,72.37
2017-06-12T03:49:52.145Z,72.08
2017-06-12T03:51:06.205Z,72.37
2017-06-12T03:52:21.738Z,72.37
2017-06-12T03:53:36.806Z,72.37
2017-06-12T03:54:52.466Z,72.27
2017-06-12T03:56:07.888Z,72.27
2017-06-12T03:57:23.353Z,72.56
2017-06-12T03:58:38.988Z,72.33
2017-06-12T03:59:54.384Z,72.53
2017-06-12T04:01:08.529Z,72.14
2017-06-12T04:02:24.034Z,71.85
2017-06-12T04:03:38.265Z,70.79
2017-06-12T04:04:52.491Z,71.18
2017-06-12T04:06:06.663Z,69.54
2017-06-12T04:07:22.129Z,70.02
2017-06-12T04:08:37.609Z,70.31
2017-06-12T04:09:51.766Z,69.93
2017-06-12T04:11:07.419Z,69.83
2017-06-12T04:12:22.956Z,69.93
2017-06-12T04:13:51.853Z,69.45
2017-06-12T04:15:05.863Z,69.83
2017-06-12T04:16:21.352Z,69.54
2017-06-12T04:17:36.975Z,69.83
2017-06-12T04:18:52.398Z,69.45
2017-06-12T04:20:05.237Z,69.64
2017-06-12T04:21:20.668Z,69.25
2017-06-12T04:22:33.316Z,69.45
2017-06-12T04:23:47.480Z,69.45
2017-06-12T04:25:01.492Z,69.06
2017-06-12T04:26:16.919Z,69.25
2017-06-12T04:27:32.325Z,69.35
2017-06-12T04:28:46.519Z,68.96
2017-06-12T04:30:02.001Z,68.58
2017-06-12T04:31:16.340Z,68.48
2017-06-12T04:32:30.561Z,68.48
2017-06-12T04:33:44.688Z,68.58
2017-06-12T04:35:00.150Z,67.9
2017-06-12T04:36:14.508Z,67.71
2017-06-12T04:37:29.951Z,67.9
2017-06-12T04:38:45.389Z,67.9
2017-06-12T04:40:01.089Z,67.81
2017-06-12T04:41:16.479Z,67.81
2017-06-12T04:42:31.964Z,67.52
2017-06-12T04:43:47.363Z,67.42
2017-06-12T04:45:01.539Z,67.13
2017-06-12T04:46:17.001Z,67.33
2017-06-12T04:47:32.356Z,66.85
2017-06-12T04:48:47.856Z,66.94
2017-06-12T04:50:03.266Z,66.94
2017-06-12T04:51:17.450Z,67.33
2017-06-12T04:52:32.556Z,67.13
2017-06-12T04:53:46.771Z,66.75
2017-06-12T04:55:00.911Z,66.85
2017-06-12T04:56:15.953Z,66.75
2017-06-12T04:57:31.414Z,66.94
2017-06-12T04:58:46.797Z,66.94
2017-06-12T05:00:02.326Z,66.85
2017-06-12T05:01:17.820Z,66.39
2017-06-12T05:02:33.289Z,66.3
2017-06-12T05:03:48.697Z,66.59
2017-06-12T05:05:04.151Z,66.59
2017-06-12T05:06:19.620Z,66.88
2017-06-12T05:07:35.127Z,66.3
2017-06-12T05:08:50.598Z,66.49
2017-06-12T05:10:06.110Z,66.3
2017-06-12T05:11:21.561Z,66.39
2017-06-12T05:12:35.783Z,65.91
2017-06-12T05:13:49.913Z,65.91
2017-06-12T05:15:18.958Z,66.11
2017-06-12T05:16:34.534Z,65.53
2017-06-12T05:17:49.959Z,66.04
2017-06-12T05:19:05.373Z,65.75
2017-06-12T05:20:20.836Z,65.17
2017-06-12T05:21:36.299Z,65.27
2017-06-12T05:22:51.782Z,64.5
2017-06-12T05:24:05.938Z,64.69
2017-06-12T05:25:21.535Z,64.69
2017-06-12T05:26:36.694Z,64.47
2017-06-12T05:27:51.820Z,64.86
2017-06-12T05:29:07.351Z,65.05
2017-06-12T05:30:21.357Z,65.24
2017-06-12T05:31:37.010Z,64.86
2017-06-12T05:32:52.837Z,64.66
2017-06-12T05:34:08.314Z,64.56
2017-06-12T05:35:23.765Z,64.31
2017-06-12T05:36:39.280Z,64.59
2017-06-12T05:37:54.805Z,64.76
2017-06-12T05:39:10.277Z,64.56
2017-06-12T05:40:25.689Z,64.31
2017-06-12T05:41:41.187Z,64.66
2017-06-12T05:42:56.667Z,64.56
2017-06-12T05:44:12.170Z,64.79
2017-06-12T05:45:27.820Z,64.69
2017-06-12T05:46:43.231Z,64.21
2017-06-12T05:47:58.767Z,63.73
2017-06-12T05:49:13.856Z,63.82
2017-06-12T05:50:29.319Z,63.34
2017-06-12T05:51:44.780Z,63.44
2017-06-12T05:53:00.220Z,63.63
2017-06-12T05:54:15.668Z,63.82
2017-06-12T05:55:31.109Z,63.24
2017-06-12T05:56:46.576Z,62.66
2017-06-12T05:58:00.732Z,62.57
2017-06-12T05:59:16.232Z,62.96
2017-06-12T06:00:31.669Z,62.76
2017-06-12T06:01:47.178Z,63.15
2017-06-12T06:03:02.687Z,62.09
2017-06-12T06:04:18.155Z,62.22
2017-06-12T06:05:33.622Z,62.51
2017-06-12T06:06:49.122Z,62.31
2017-06-12T06:08:35.500Z,62.02
2017-06-12T06:09:50.929Z,62.22
2017-06-12T06:11:06.405Z,61.93
2017-06-12T06:12:20.644Z,60.77
2017-06-12T06:13:36.279Z,60.86
2017-06-12T06:14:51.757Z,59.8
2017-06-12T06:16:07.247Z,59.42
2017-06-12T06:17:22.670Z,57.59
2017-06-12T06:18:38.154Z,57.39
2017-06-12T06:19:53.629Z,57.68
2017-06-12T06:21:09.212Z,57.49
2017-06-12T06:22:24.947Z,55.85
2017-06-12T06:23:40.679Z,54.5
2017-06-12T06:24:54.829Z,55.18
2017-06-12T06:26:10.263Z,54.98
2017-06-12T06:27:25.704Z,55.08
2017-06-12T06:28:41.208Z,55.63
2017-06-12T06:29:57.030Z,56.49
2017-06-12T06:31:12.112Z,56.49
2017-06-12T06:32:27.625Z,56.88
2017-06-12T06:33:43.087Z,57.17
2017-06-12T06:34:57.220Z,56.88
2017-06-12T06:36:12.877Z,57.37
2017-06-12T06:37:28.009Z,57.01
2017-06-12T06:38:43.460Z,57.07
2017-06-12T06:39:58.894Z,57.17
2017-06-12T06:41:14.365Z,56.98
2017-06-12T06:42:29.973Z,57.1
2017-06-12T06:43:44.154Z,57.07
2017-06-12T06:44:59.587Z,57.27
2017-06-12T06:46:15.278Z,57.59
2017-06-12T06:47:30.766Z,57.17
2017-06-12T06:48:46.229Z,57.65
2017-06-12T06:50:01.634Z,57.94
2017-06-12T06:51:17.119Z,56.98
2017-06-12T06:52:32.566Z,56.88
2017-06-12T06:53:46.633Z,56.72
2017-06-12T06:55:02.105Z,55.05
2017-06-12T06:56:17.580Z,56.11
2017-06-12T06:57:33.135Z,55.63
2017-06-12T06:58:48.585Z,55.54
2017-06-12T07:00:04.186Z,55.24
2017-06-12T07:01:19.776Z,54.66
2017-06-12T07:02:35.248Z,54.76
2017-06-12T07:03:50.713Z,54.76
2017-06-12T07:05:06.293Z,54.57
2017-06-12T07:06:21.720Z,54.66
2017-06-12T07:07:37.121Z,54.57
2017-06-12T07:08:52.733Z,53.89
2017-06-12T07:10:06.703Z,54.64
2017-06-12T07:11:22.094Z,54.54
2017-06-12T07:12:37.518Z,54.93
2017-06-12T07:13:51.677Z,54.35
2017-06-12T07:15:07.293Z,54.54
2017-06-12T07:16:22.770Z,52.91
2017-06-12T07:17:38.481Z,52.91
2017-06-12T07:18:54.008Z,53.87
2017-06-12T07:20:09.489Z,54.54
2017-06-12T07:21:24.973Z,54.35
2017-06-12T07:22:40.403Z,54.93
2017-06-12T07:23:55.891Z,55.12
2017-06-12T07:25:11.368Z,54.35
2017-06-12T07:26:26.967Z,54.47
2017-06-12T07:27:42.430Z,54.44
2017-06-12T07:28:57.847Z,54.57
2017-06-12T07:30:13.313Z,54.66
2017-06-12T07:31:27.336Z,54.18
2017-06-12T07:32:42.802Z,53.51
2017-06-12T07:33:58.303Z,54.38
2017-06-12T07:35:13.770Z,54.18
2017-06-12T07:36:29.206Z,53.61
2017-06-12T07:37:44.856Z,53.61
2017-06-12T07:39:00.313Z,53.51
2017-06-12T07:40:15.761Z,53.31
2017-06-12T07:41:31.346Z,53.67
2017-06-12T07:42:45.389Z,54.66
2017-06-12T07:44:00.855Z,53.41
2017-06-12T07:45:16.543Z,53.51
2017-06-12T07:46:32.018Z,53.51
2017-06-12T07:47:47.496Z,53.99
2017-06-12T07:49:02.953Z,54.28
2017-06-12T07:50:18.363Z,54.57
2017-06-12T07:51:32.532Z,54.38
2017-06-12T07:52:48.040Z,54.28
2017-06-12T07:54:03.537Z,54.09
2017-06-12T07:55:19.022Z,54.38
2017-06-12T07:56:34.401Z,54.76
2017-06-12T07:57:48.542Z,54.57
2017-06-12T07:59:04.282Z,54.88
2017-06-12T08:00:19.737Z,54.5
2017-06-12T08:01:48.781Z,53.53
2017-06-12T08:03:04.462Z,53.73
2017-06-12T08:04:19.889Z,53.63
2017-06-12T08:05:32.677Z,54.21
2017-06-12T08:06:48.081Z,54.31
2017-06-12T08:08:03.510Z,53.63
2017-06-12T08:09:17.710Z,54.02
2017-06-12T08:10:33.209Z,53.53
2017-06-12T08:11:48.640Z,53.53
2017-06-12T08:13:04.134Z,52.76
2017-06-12T08:14:19.609Z,52.76
2017-06-12T08:15:34.684Z,52.95
2017-06-12T08:16:47.552Z,53.25
2017-06-12T08:18:02.988Z,53.25
2017-06-12T08:19:18.401Z,53.34
2017-06-12T08:20:33.894Z,53.73
2017-06-12T08:21:49.532Z,53.44
2017-06-12T08:23:04.957Z,53.53
2017-06-12T08:24:20.361Z,53.17
2017-06-12T08:25:35.810Z,53.27
2017-06-12T08:26:51.375Z,53.37
2017-06-12T08:28:05.549Z,51.92
2017-06-12T08:29:21.036Z,52.11
2017-06-12T08:30:36.530Z,52.91
2017-06-12T08:31:51.941Z,52.72
2017-06-12T08:33:07.356Z,52.72
2017-06-12T08:34:22.835Z,52.04
2017-06-12T08:35:38.268Z,51.07
2017-06-12T08:36:53.745Z,50.71
2017-06-12T08:38:09.263Z,51.29
2017-06-12T08:39:24.702Z,49.65
2017-06-12T08:40:40.172Z,48.79
2017-06-12T08:41:54.348Z,49.27
2017-06-12T08:43:09.791Z,49.07
2017-06-12T08:44:23.950Z,48.81
2017-06-12T08:45:39.393Z,47.26
2017-06-12T08:46:54.850Z,47.16
2017-06-12T08:48:10.242Z,46.51
2017-06-12T08:49:25.700Z,45.25
2017-06-12T08:50:41.402Z,45.54
2017-06-12T08:51:56.819Z,45.47
2017-06-12T08:53:10.969Z,42.47
2017-06-12T08:54:24.971Z,42.97
2017-06-12T08:55:40.479Z,41.83
2017-06-12T08:56:56.016Z,41.35
2017-06-12T08:58:11.456Z,42.13
2017-06-12T08:59:26.543Z,41.95
2017-06-12T09:00:42.017Z,42.41
2017-06-12T09:01:57.534Z,42.13
2017-06-12T09:03:13.207Z,41.3
2017-06-12T09:04:28.682Z,38.21
2017-06-12T09:05:44.123Z,37.86
2017-06-12T09:06:59.573Z,39.8
2017-06-12T09:08:15.017Z,38.15
2017-06-12T09:09:30.530Z,39.82
2017-06-12T09:10:46.047Z,38.95
2017-06-12T09:12:01.894Z,37.99
2017-06-12T09:13:15.893Z,36.85
2017-06-12T09:14:31.376Z,36.08
2017-06-12T09:15:46.838Z,36.28
2017-06-12T09:17:01.013Z,36.18
2017-06-12T09:18:16.465Z,36.94
2017-06-12T09:19:31.964Z,36.93
2017-06-12T09:20:47.587Z,37.02
2017-06-12T09:22:03.052Z,35.76
2017-06-12T09:23:18.552Z,36.16
2017-06-12T09:24:34.077Z,35.8
2017-06-12T09:25:49.703Z,35.61
2017-06-12T09:27:05.160Z,35.15
2017-06-12T09:28:17.859Z,34.59
2017-06-12T09:29:33.356Z,32.76
2017-06-12T09:30:49.048Z,32.39
2017-06-12T09:32:03.194Z,32.19
2017-06-12T09:33:18.681Z,31.04
2017-06-12T09:34:31.380Z,30.37
2017-06-12T09:35:45.418Z,30.37
2017-06-12T09:36:59.563Z,30.68
2017-06-12T09:38:15.060Z,30.4
2017-06-12T09:39:30.517Z,29.42
2017-06-12T09:40:45.980Z,29.52
2017-06-12T09:42:00.131Z,29.8
2017-06-12T09:43:15.669Z,30.35
2017-06-12T09:44:31.304Z,30.06
2017-06-12T09:45:46.753Z,30.35
2017-06-12T09:47:02.174Z,29.75
2017-06-12T09:48:16.324Z,30.24
2017-06-12T09:49:31.799Z,30.15
2017-06-12T09:50:47.278Z,29.66
2017-06-12T09:52:03.005Z,29.85
2017-06-12T09:53:17.049Z,29.75
2017-06-12T09:54:32.537Z,28.99
2017-06-12T09:55:48.067Z,28.69
2017-06-12T09:57:02.264Z,28.32
2017-06-12T09:58:17.862Z,28.52
2017-06-12T09:59:33.499Z,28.72
2017-06-12T10:02:18.043Z,28.03
2017-06-12T10:03:33.184Z,28.72
2017-06-12T10:04:48.273Z,28.32
2017-06-12T10:06:03.782Z,28.5
2017-06-12T10:07:19.289Z,28.58
2017-06-12T10:08:34.767Z,29.33
2017-06-12T10:09:50.312Z,30.28
2017-06-12T10:11:05.771Z,30.55
2017-06-12T10:12:21.246Z,31.3
2017-06-12T10:13:36.732Z,31.66
2017-06-12T10:14:50.916Z,33.38
2017-06-12T10:16:06.387Z,34.62
2017-06-12T10:17:20.648Z,35.56
2017-06-12T10:18:36.121Z,35.83
2017-06-12T10:19:51.592Z,36.14
2017-06-12T10:21:07.024Z,35.27
2017-06-12T10:22:22.461Z,35.01
2017-06-12T10:23:36.682Z,33.76
2017-06-12T10:24:50.712Z,32.32
2017-06-12T10:26:06.146Z,31.08
2017-06-12T10:27:21.698Z,30.71
2017-06-12T10:28:37.178Z,30.61
2017-06-12T10:29:52.667Z,30.52
2017-06-12T10:31:08.144Z,30.22
2017-06-12T10:32:23.594Z,30.8
2017-06-12T10:33:38.998Z,31.37
2017-06-12T10:34:54.552Z,32.32
2017-06-12T10:36:09.995Z,32.42
2017-06-12T10:37:25.472Z,32.6
2017-06-12T10:38:40.958Z,32.49
2017-06-12T10:39:56.446Z,32.78
2017-06-12T10:41:11.917Z,32.31
2017-06-12T10:42:27.117Z,32.42
2017-06-12T10:43:42.250Z,32.24
2017-06-12T10:44:57.739Z,32.35
2017-06-12T10:46:13.215Z,31.61
2017-06-12T10:47:28.687Z,29.68
2017-06-12T10:48:44.463Z,29
2017-06-12T10:49:58.651Z,29.19
2017-06-12T10:51:13.734Z,29.78
2017-06-12T10:54:11.887Z,30.07
2017-06-12T10:55:27.400Z,30.36
2017-06-12T10:58:11.941Z,31.21
2017-06-12T10:59:27.498Z,31.79
2017-06-12T11:00:42.980Z,31.77
2017-06-12T11:01:58.458Z,32.24
2017-06-12T11:03:13.971Z,32.04
2017-06-12T11:04:28.118Z,32.7
2017-06-12T11:05:43.595Z,32.5
2017-06-12T11:06:59.112Z,32.97
2017-06-12T11:08:14.541Z,33.06
2017-06-12T11:09:28.739Z,33.26
2017-06-12T11:10:44.017Z,33.54
2017-06-12T11:11:59.663Z,33.81
2017-06-12T11:13:15.173Z,34.59
2017-06-12T11:14:30.240Z,35.46
2017-06-12T11:15:45.398Z,36.22
2017-06-12T11:17:00.912Z,36.51
2017-06-12T11:18:16.457Z,35.64
2017-06-12T11:19:31.915Z,35.15
2017-06-12T11:21:16.928Z,34.96
2017-06-12T11:22:32.480Z,34.28
2017-06-12T11:23:47.929Z,34.39
2017-06-12T11:25:03.476Z,33.06
2017-06-12T11:26:18.905Z,32.2
2017-06-12T11:27:34.345Z,31.34
2017-06-12T11:28:49.855Z,30.87
2017-06-12T11:30:05.324Z,30.11
2017-06-12T11:31:20.994Z,30.4
2017-06-12T11:32:35.190Z,30.12
2017-06-12T11:33:50.622Z,30.51
2017-06-12T11:35:06.134Z,30.41
2017-06-12T11:36:21.612Z,30.69
2017-06-12T11:37:35.815Z,30.77
2017-06-12T11:38:51.302Z,30.95
2017-06-12T11:40:06.806Z,32.1
2017-06-12T11:42:51.754Z,30.34
2017-06-12T11:44:07.223Z,30.24
2017-06-12T11:45:22.763Z,29.47
2017-06-12T11:46:38.065Z,29.97
2017-06-12T11:47:53.561Z,29.58
2017-06-12T11:49:09.174Z,29.88
2017-06-12T11:50:24.680Z,29.71
2017-06-12T11:51:40.151Z,29.32
2017-06-12T11:52:55.838Z,29.9
2017-06-12T11:54:11.525Z,30.38
2017-06-12T11:55:27.048Z,29.61
2017-06-12T11:56:42.556Z,30.57
2017-06-12T11:57:58.047Z,30.18
2017-06-12T11:59:12.188Z,30.07
2017-06-12T12:00:26.461Z,30.26
2017-06-12T12:01:40.505Z,30.24
2017-06-12T12:02:55.950Z,30.73
2017-06-12T12:04:11.427Z,30.63
2017-06-12T12:05:26.875Z,31.39
2017-06-12T12:06:42.345Z,31.67
2017-06-12T12:07:57.835Z,31.76
2017-06-12T12:09:12.246Z,32.06
2017-06-12T12:10:26.411Z,32.06
2017-06-12T12:11:42.038Z,32.06
2017-06-12T12:12:57.591Z,31.96
2017-06-12T12:14:13.064Z,32.34
2017-06-12T12:15:28.549Z,32.24
2017-06-12T12:16:43.943Z,33.02
2017-06-12T12:17:58.119Z,31.86
2017-06-12T12:19:13.615Z,32.34
2017-06-12T12:20:29.125Z,32.06
2017-06-12T12:21:58.222Z,32.44
2017-06-12T12:23:13.707Z,32.54
2017-06-12T12:24:29.301Z,32.54
2017-06-12T12:25:43.250Z,33.22
2017-06-12T12:26:57.431Z,33.59
2017-06-12T12:28:12.892Z,33.1
2017-06-12T12:29:27.274Z,33.29
2017-06-12T12:30:42.768Z,32.73
2017-06-12T12:31:58.270Z,32.06
2017-06-12T12:33:13.740Z,32.44
2017-06-12T12:34:29.355Z,32.73
2017-06-12T12:35:44.478Z,32.82
2017-06-12T12:36:59.989Z,33.02
2017-06-12T12:38:15.797Z,33.31
2017-06-12T12:39:31.290Z,33.51
2017-06-12T12:40:46.763Z,33.49
2017-06-12T12:42:02.242Z,33.69
2017-06-12T12:43:18.019Z,33.59
2017-06-12T12:44:33.487Z,33.76
2017-06-12T12:45:48.996Z,34.52
2017-06-12T12:47:04.470Z,34.52
2017-06-12T12:48:19.934Z,35.29
2017-06-12T12:49:35.488Z,35.57
2017-06-12T12:50:51.179Z,35.66
2017-06-12T12:52:05.315Z,36.05
2017-06-12T12:53:20.768Z,36.53
2017-06-12T12:54:36.184Z,36.53
2017-06-12T12:55:51.771Z,36.53
2017-06-12T12:57:07.227Z,36.82
2017-06-12T12:58:22.794Z,36.44
2017-06-12T12:59:36.980Z,36.63
2017-06-12T13:00:52.481Z,37.02
2017-06-12T13:02:07.975Z,37.21
2017-06-12T13:03:23.434Z,36.82
2017-06-12T13:04:38.518Z,36.34
2017-06-12T13:05:51.202Z,36.53
2017-06-12T13:07:06.665Z,36.72
2017-06-12T13:08:20.705Z,37.21
2017-06-12T13:09:36.411Z,37.5
2017-06-12T13:10:52.056Z,36.63
2017-06-12T13:12:07.547Z,36.82
2017-06-12T13:13:21.696Z,36.72
2017-06-12T13:14:37.147Z,36.63
2017-06-12T13:15:52.661Z,37.02
2017-06-12T13:17:08.154Z,37.19
2017-06-12T13:18:22.331Z,37.6
2017-06-12T13:19:37.817Z,37.77
2017-06-12T13:20:53.281Z,38.06
2017-06-12T13:22:08.767Z,38.54
2017-06-12T13:23:24.284Z,38.25
2017-06-12T13:24:39.816Z,38.83
2017-06-12T13:25:55.289Z,38.06
2017-06-12T13:27:10.910Z,38.25
2017-06-12T13:28:26.369Z,37.96
2017-06-12T13:29:41.826Z,37.4
2017-06-12T13:30:57.338Z,37.7
2017-06-12T13:32:12.847Z,37.5
2017-06-12T13:33:28.299Z,37.3
2017-06-12T13:34:43.800Z,37.6
2017-06-12T13:35:59.714Z,36.84
2017-06-12T13:37:15.211Z,36.26
2017-06-12T13:38:29.374Z,35.99
2017-06-12T13:39:44.923Z,35.1
2017-06-12T13:41:00.371Z,34.33
2017-06-12T13:42:15.862Z,34.71
2017-06-12T13:43:29.996Z,34.81
2017-06-12T13:44:45.560Z,34.81
2017-06-12T13:45:59.745Z,34.79
2017-06-12T13:47:14.873Z,35.18
2017-06-12T13:48:29.036Z,35.08
2017-06-12T13:49:43.089Z,35.37
2017-06-12T13:50:58.571Z,35.29
2017-06-12T13:52:14.051Z,35.28
2017-06-12T13:53:29.518Z,34.12
2017-06-12T13:54:45.011Z,34.13
2017-06-12T13:56:00.435Z,34.33
2017-06-12T13:57:15.898Z,34.12
2017-06-12T13:58:31.391Z,34.33
2017-06-12T13:59:46.862Z,34.23
2017-06-12T14:01:02.341Z,34.33
2017-06-12T14:02:17.856Z,34.62
2017-06-12T14:03:33.389Z,34.52
2017-06-12T14:04:48.897Z,35
2017-06-12T14:06:04.525Z,35.49
2017-06-12T14:07:20.015Z,34.52
2017-06-12T14:08:35.496Z,35.2
2017-06-12T14:09:49.553Z,35
2017-06-12T14:11:05.053Z,34.71
2017-06-12T14:12:20.582Z,34.71
2017-06-12T14:13:36.668Z,35
2017-06-12T14:14:52.115Z,35.18
2017-06-12T14:16:07.608Z,35.37
2017-06-12T14:17:23.048Z,35.66
2017-06-12T14:18:38.572Z,34.99
2017-06-12T14:19:54.160Z,35.18
2017-06-12T14:21:09.604Z,35.28
2017-06-12T14:22:23.821Z,35.28
2017-06-12T14:23:39.293Z,35.47
2017-06-12T14:24:54.817Z,35.57
2017-06-12T14:26:10.314Z,35.78
2017-06-12T14:27:25.754Z,35.58
2017-06-12T14:28:41.245Z,35.2
2017-06-12T14:29:56.765Z,35.58
2017-06-12T14:31:09.648Z,36.07
2017-06-12T14:32:25.108Z,34.99
2017-06-12T14:33:40.620Z,35.18
2017-06-12T14:34:56.284Z,35.08
2017-06-12T14:36:11.752Z,34.99
2017-06-12T14:37:27.301Z,35.37
2017-06-12T14:38:42.837Z,36.22
2017-06-12T14:39:56.891Z,36.42
2017-06-12T14:41:12.321Z,36.32
2017-06-12T14:42:27.846Z,36.8
2017-06-12T14:43:43.319Z,36.71
2017-06-12T14:44:58.826Z,36.61
2017-06-12T14:46:14.285Z,36.9
2017-06-12T14:47:29.972Z,37.48
2017-06-12T14:48:44.141Z,37.29
2017-06-12T14:49:59.652Z,36.9
2017-06-12T14:51:15.124Z,37.29
2017-06-12T14:52:30.607Z,37.19
2017-06-12T14:53:44.810Z,37.67
2017-06-12T14:55:00.268Z,37.38
2017-06-12T14:56:15.972Z,37.38
2017-06-12T14:57:31.463Z,36.72
2017-06-12T14:58:46.914Z,36.72
2017-06-12T15:00:02.477Z,36.82
2017-06-12T15:01:18.209Z,37.12
2017-06-12T15:02:33.674Z,37.38
2017-06-12T15:03:48.824Z,37.79
2017-06-12T15:05:04.314Z,38.18
2017-06-12T15:06:19.874Z,38.28
2017-06-12T15:09:04.430Z,38.18
2017-06-12T15:10:19.898Z,38.66
2017-06-12T15:11:35.384Z,38.76
2017-06-12T15:12:51.041Z,38.46
2017-06-12T15:14:06.666Z,38.28
2017-06-12T15:15:20.830Z,38.37
2017-06-12T15:16:34.850Z,38.18
2017-06-12T15:17:50.490Z,38.18
2017-06-12T15:19:06.053Z,38.28
2017-06-12T15:20:21.494Z,38.08
2017-06-12T15:21:36.943Z,37.29
2017-06-12T15:22:51.286Z,37.96
2017-06-12T15:24:06.853Z,38.74
2017-06-12T15:25:22.342Z,39.39
2017-06-12T15:26:37.855Z,39.59
2017-06-12T15:27:53.362Z,39.97
2017-06-12T15:29:08.843Z,40.26
2017-06-12T15:30:23.021Z,40.84
2017-06-12T15:31:38.681Z,40.84
2017-06-12T15:32:54.276Z,40.82
2017-06-12T15:34:09.770Z,40.82
2017-06-12T15:35:24.925Z,41.02
2017-06-12T15:36:39.192Z,40.53
2017-06-12T15:37:54.350Z,40.53
2017-06-12T15:39:09.824Z,40.05
2017-06-12T15:40:25.245Z,40.03
2017-06-12T15:41:40.759Z,40.61
2017-06-12T15:42:56.289Z,41.19
2017-06-12T15:44:11.974Z,41.19
2017-06-12T15:45:26.023Z,41.38
2017-06-12T15:46:41.499Z,41.67
2017-06-12T15:47:57.125Z,41.28
2017-06-12T15:49:12.654Z,41.77
2017-06-12T15:50:28.142Z,42.15
2017-06-12T15:51:43.717Z,42.25
2017-06-12T15:52:59.216Z,42.25
2017-06-12T15:54:14.701Z,42.25
2017-06-12T15:55:30.211Z,42.44
2017-06-12T15:56:59.246Z,42.93
2017-06-12T15:58:14.734Z,42.93
2017-06-12T15:59:30.311Z,42.93
2017-06-12T16:00:46.026Z,43.02
2017-06-12T16:02:01.492Z,43.02
2017-06-12T16:03:16.986Z,42.9
2017-06-12T16:04:32.496Z,43.29
2017-06-12T16:05:48.044Z,43.41
2017-06-12T16:07:03.564Z,43.5
2017-06-12T16:08:19.140Z,43.77
2017-06-12T16:09:34.650Z,43.77
2017-06-12T16:10:50.168Z,43.96
2017-06-12T16:12:05.665Z,44.54
2017-06-12T16:13:21.159Z,43.96
2017-06-12T16:14:36.636Z,44.35
2017-06-12T16:15:52.096Z,44.64
2017-06-12T16:17:05.880Z,44.73
2017-06-12T16:18:21.325Z,45.51
2017-06-12T16:19:36.822Z,45.21
2017-06-12T16:20:52.325Z,45.6
2017-06-12T16:22:07.830Z,45.12